TimeCDT,TemperatureF,Dew PointF,Humidity,Sea Level PressureIn,VisibilityMPH,Wind Direction,Wind SpeedMPH,Gust SpeedMPH,PrecipitationIn,Events,Conditions,WindDirDegrees,DateUTC
12:53 AM,59.0,43.0,55,29.90,10.0,ESE,9.2,-,N/A,,Clear,120,2013-10-09 05:53:00
1:53 AM,61.0,43.0,52,29.90,10.0,SE,10.4,-,N/A,,Clear,130,2013-10-09 06:53:00
2:53 AM,60.1,44.1,55,29.90,10.0,ESE,10.4,-,N/A,,Clear,120,2013-10-09 07:53:00
3:53 AM,59.0,44.1,58,29.90,10.0,ESE,9.2,-,N/A,,Clear,120,2013-10-09 08:53:00
4:53 AM,57.0,44.1,62,29.90,10.0,SE,8.1,-,N/A,,Clear,140,2013-10-09 09:53:00
5:53 AM,55.0,44.1,67,29.92,10.0,ESE,5.8,-,N/A,,Clear,120,2013-10-09 10:53:00
6:53 AM,54.0,44.1,69,29.93,10.0,ESE,8.1,-,N/A,,Clear,120,2013-10-09 11:53:00
7:53 AM,53.1,45.0,74,29.95,10.0,East,8.1,-,N/A,,Clear,100,2013-10-09 12:53:00
8:53 AM,57.9,46.9,67,29.96,10.0,SE,5.8,-,N/A,,Clear,130,2013-10-09 13:53:00
9:53 AM,66.0,46.0,48,29.97,9.0,South,11.5,-,N/A,,Clear,170,2013-10-09 14:53:00
10:53 AM,73.0,46.9,39,29.97,10.0,South,16.1,-,N/A,,Clear,190,2013-10-09 15:53:00
11:53 AM,78.1,46.9,33,29.96,8.0,SSW,17.3,-,N/A,,Clear,200,2013-10-09 16:53:00
12:53 PM,82.0,46.0,28,29.94,10.0,South,19.6,25.3,N/A,,Clear,180,2013-10-09 17:53:00
1:53 PM,82.0,46.0,28,29.91,10.0,South,20.7,-,N/A,,Clear,180,2013-10-09 18:53:00
2:16 PM,84.2,46.4,27,29.94,3.0,South,20.7,26.5,N/A,,Haze,170,2013-10-09 19:16:00
2:53 PM,84.0,46.0,26,29.88,10.0,South,25.3,29.9,N/A,,Clear,170,2013-10-09 19:53:00
3:53 PM,82.9,45.0,26,29.87,10.0,SSE,16.1,25.3,N/A,,Clear,160,2013-10-09 20:53:00
4:53 PM,84.0,43.0,24,29.86,10.0,SSE,19.6,24.2,N/A,,Clear,150,2013-10-09 21:53:00
5:53 PM,82.0,44.1,26,29.86,10.0,SSE,16.1,26.5,N/A,,Clear,150,2013-10-09 22:53:00
6:53 PM,80.1,44.1,28,29.86,10.0,SSE,16.1,-,N/A,,Clear,150,2013-10-09 23:53:00
7:53 PM,73.0,44.1,35,29.88,10.0,SE,11.5,-,N/A,,Clear,140,2013-10-10 00:53:00
8:53 PM,70.0,44.1,39,29.90,10.0,SE,11.5,-,N/A,,Clear,130,2013-10-10 01:53:00
9:53 PM,68.0,46.0,45,29.91,10.0,SE,12.7,-,N/A,,Clear,130,2013-10-10 02:53:00
10:53 PM,66.0,48.0,52,29.92,10.0,SE,11.5,-,N/A,,Clear,130,2013-10-10 03:53:00
11:53 PM,66.0,48.9,54,29.92,10.0,SE,12.7,-,N/A,,Clear,140,2013-10-10 04:53:00